Time;durP1;ratioP1;P1;durP2;ratioP2;P2;SDS_P1;SDS_P2;PMS_P1;PMS_P2;Temp;Humidity;BMP_temperature;BMP_pressure;BME280_temperature;BME280_humidity;BME280_pressure;Samples;Min_cycle;Max_cycle;Signal;HPM_P1;HPM_P2
2021/06/27 00:01:52;;;;;;;7.68;6.97;;;;;;;18.61;100.00;101207.34;4989656;28;20287;-77
2021/06/27 00:04:18;;;;;;;7.78;7.07;;;;;;;18.59;100.00;101203.28;4975664;28;20216;-76
2021/06/27 00:06:44;;;;;;;7.95;7.22;;;;;;;18.60;100.00;101202.16;4991796;28;20320;-75
2021/06/27 00:09:13;;;;;;;8.25;7.43;;;;;;;18.51;100.00;101201.25;4991025;28;20197;-76
2021/06/27 00:11:38;;;;;;;8.50;7.70;;;;;;;18.40;100.00;101199.88;4984208;28;20703;-75
2021/06/27 00:14:04;;;;;;;8.27;7.47;;;;;;;18.44;100.00;101197.31;4971522;28;20186;-76
2021/06/27 00:16:31;;;;;;;7.85;7.15;;;;;;;18.28;100.00;101196.84;4995496;28;20653;-76
2021/06/27 00:18:59;;;;;;;7.95;7.15;;;;;;;18.45;100.00;101194.25;4991009;28;20196;-76
2021/06/27 00:21:29;;;;;;;10.32;8.02;;;;;;;18.48;100.00;101188.13;4989926;28;20248;-76
2021/06/27 00:23:57;;;;;;;8.10;7.40;;;;;;;18.29;100.00;101187.47;4975038;28;20203;-76
2021/06/27 00:26:30;;;;;;;7.63;6.93;;;;;;;18.22;100.00;101189.84;4998918;28;20237;-79
2021/06/27 00:29:01;;;;;;;8.40;7.55;;;;;;;18.20;100.00;101189.34;4990580;28;20186;-75
2021/06/27 00:31:26;;;;;;;8.48;7.68;;;;;;;18.23;100.00;101191.44;4978092;28;20249;-76
2021/06/27 00:33:59;;;;;;;8.30;7.60;;;;;;;18.22;100.00;101198.09;4971009;28;20190;-76
2021/06/27 00:36:30;;;;;;;8.45;7.50;;;;;;;18.22;100.00;101198.09;4997396;28;20229;-76
2021/06/27 00:38:58;;;;;;;8.60;7.72;;;;;;;18.32;100.00;101197.06;5006679;28;20205;-77
2021/06/27 00:41:23;;;;;;;7.70;6.95;;;;;;;18.22;100.00;101187.09;4989091;28;20583;-75
2021/06/27 00:43:51;;;;;;;8.18;7.38;;;;;;;18.23;100.00;101188.72;4970926;28;20190;-76
2021/06/27 00:46:17;;;;;;;8.23;7.53;;;;;;;18.17;100.00;101176.19;4967491;28;21105;-75
2021/06/27 00:48:43;;;;;;;9.30;8.40;;;;;;;18.02;100.00;101188.63;5006425;28;20189;-76
2021/06/27 00:51:08;;;;;;;8.05;7.35;;;;;;;17.97;100.00;101189.53;4986085;28;20234;-76
2021/06/27 00:53:34;;;;;;;9.27;8.38;;;;;;;17.80;100.00;101188.53;4970969;28;20199;-76
2021/06/27 00:56:05;;;;;;;8.98;8.13;;;;;;;17.82;100.00;101191.81;4975843;28;20235;-75
2021/06/27 00:58:34;;;;;;;8.82;7.93;;;;;;;17.95;100.00;101191.00;4990565;28;20182;-75
2021/06/27 01:01:01;;;;;;;8.48;7.78;;;;;;;17.87;100.00;101186.19;4968855;28;20221;-76
2021/06/27 01:03:32;;;;;;;8.75;7.70;;;;;;;17.71;100.00;101184.06;4974232;28;20534;-76
2021/06/27 01:05:59;;;;;;;8.90;8.15;;;;;;;17.70;100.00;101183.25;4958084;28;20640;-75
2021/06/27 01:08:25;;;;;;;8.93;8.13;;;;;;;17.56;100.00;101185.16;4989765;28;20185;-77
2021/06/27 01:10:53;;;;;;;9.13;8.23;;;;;;;17.28;100.00;101184.66;4974509;28;20221;-77
2021/06/27 01:13:22;;;;;;;8.20;7.47;;;;;;;17.23;100.00;101190.25;4981888;28;20666;-77
2021/06/27 01:15:50;;;;;;;8.80;8.00;;;;;;;17.21;100.00;101181.50;4989307;28;20225;-76
2021/06/27 01:18:16;;;;;;;8.60;7.80;;;;;;;17.21;100.00;101181.50;4973670;28;20194;-76
2021/06/27 01:20:41;;;;;;;9.52;8.40;;;;;;;17.06;100.00;101181.75;4972536;28;20300;-75
2021/06/27 01:23:12;;;;;;;9.30;8.40;;;;;;;17.13;100.00;101177.47;4970528;28;20190;-74
2021/06/27 01:25:39;;;;;;;8.52;7.78;;;;;;;17.05;100.00;101180.09;4939241;28;20222;-78
2021/06/27 01:28:07;;;;;;;9.02;8.15;;;;;;;17.02;100.00;101175.22;4989327;28;20617;-77
2021/06/27 01:30:35;;;;;;;9.05;8.20;;;;;;;17.02;100.00;101181.53;5006717;28;20686;-75
2021/06/27 01:33:08;;;;;;;9.18;8.38;;;;;;;17.06;100.00;101184.47;4987391;28;20651;-76
2021/06/27 01:35:36;;;;;;;8.68;7.97;;;;;;;17.09;100.00;101181.16;4990206;28;20225;-76
2021/06/27 01:38:02;;;;;;;9.07;8.05;;;;;;;17.28;100.00;101173.69;4991327;28;20201;-77
2021/06/27 01:40:30;;;;;;;9.45;8.55;;;;;;;17.22;100.00;101175.69;4998365;28;20933;-76
2021/06/27 01:43:28;;;;;;;9.27;8.45;;;;;;;17.32;100.00;101174.69;4986457;28;20234;-75
2021/06/27 01:46:01;;;;;;;8.70;7.90;;;;;;;17.17;100.00;101177.72;4956131;28;20230;-77
2021/06/27 01:48:29;;;;;;;9.02;8.23;;;;;;;17.03;100.00;101177.69;5001903;28;20189;-76
2021/06/27 01:50:59;;;;;;;9.43;8.52;;;;;;;16.98;100.00;101176.94;4999313;28;20225;-76
2021/06/27 01:53:31;;;;;;;9.45;8.55;;;;;;;16.75;100.00;101172.38;4984596;28;20215;-77
2021/06/27 01:56:11;;;;;;;9.32;8.43;;;;;;;16.90;100.00;101185.84;5014943;28;20229;-76
2021/06/27 01:58:44;;;;;;;9.63;8.70;;;;;;;16.94;100.00;101178.69;4985038;28;20213;-75
2021/06/27 02:01:14;;;;;;;9.32;8.43;;;;;;;17.20;100.00;101172.44;4974481;28;20742;-75
2021/06/27 02:03:40;;;;;;;9.15;8.35;;;;;;;17.19;100.00;101179.03;4972325;28;20203;-75
2021/06/27 02:06:09;;;;;;;9.50;8.57;;;;;;;17.15;100.00;101168.94;4937520;28;20256;-75
2021/06/27 02:08:35;;;;;;;9.23;8.43;;;;;;;17.06;100.00;101177.06;4982575;28;20186;-74
2021/06/27 02:11:02;;;;;;;9.55;8.55;;;;;;;16.92;100.00;101172.63;4985049;28;20380;-75
2021/06/27 02:13:28;;;;;;;8.98;8.18;;;;;;;16.96;100.00;101182.72;4963726;28;20230;-75
2021/06/27 02:15:56;;;;;;;9.40;8.50;;;;;;;16.90;100.00;101176.81;4956917;28;20240;-76
2021/06/27 02:18:38;;;;;;;9.38;8.38;;;;;;;16.92;100.00;101169.91;4989510;28;20185;-78
2021/06/27 02:21:30;;;;;;;10.07;9.05;;;;;;;16.90;100.00;101177.63;4973538;28;20228;-75
2021/06/27 02:23:56;;;;;;;10.43;9.25;;;;;;;16.80;100.00;101177.81;4990881;28;20736;-76
2021/06/27 02:26:25;;;;;;;10.35;9.35;;;;;;;16.64;100.00;101173.66;4989006;28;20238;-75
2021/06/27 02:28:51;;;;;;;10.15;9.25;;;;;;;16.66;100.00;101184.34;4989752;28;20186;-75
2021/06/27 02:31:19;;;;;;;10.07;9.18;;;;;;;16.58;100.00;101174.06;4988259;28;20213;-75
2021/06/27 02:33:45;;;;;;;9.35;8.45;;;;;;;16.55;100.00;101174.66;4989233;28;20194;-75
2021/06/27 02:36:13;;;;;;;10.00;9.10;;;;;;;16.59;100.00;101173.78;4988429;28;20230;-75
2021/06/27 02:38:38;;;;;;;10.25;9.25;;;;;;;16.48;100.00;101176.16;4982351;28;20194;-75
2021/06/27 02:41:09;;;;;;;9.95;9.05;;;;;;;16.45;100.00;101174.03;4973004;28;20229;-74
2021/06/27 02:43:37;;;;;;;11.48;10.25;;;;;;;16.47;100.00;101183.56;4974491;28;20245;-75
2021/06/27 02:46:05;;;;;;;10.35;9.35;;;;;;;16.43;100.00;101181.72;4961762;28;20287;-75
2021/06/27 02:48:31;;;;;;;10.20;9.15;;;;;;;16.44;100.00;101188.84;4972760;28;20569;-75
2021/06/27 02:50:59;;;;;;;10.88;9.80;;;;;;;16.43;100.00;101182.53;5004192;28;20221;-76
2021/06/27 02:53:27;;;;;;;10.48;9.48;;;;;;;16.47;100.00;101183.56;4984176;28;20198;-76
2021/06/27 02:56:07;;;;;;;10.30;9.30;;;;;;;16.46;100.00;101179.19;4940416;28;20218;-77
2021/06/27 02:58:38;;;;;;;10.57;9.57;;;;;;;16.39;100.00;101186.16;4968125;28;20220;-76
2021/06/27 03:01:04;;;;;;;10.35;9.35;;;;;;;16.33;100.00;101184.59;4991062;28;20221;-76
2021/06/27 03:03:30;;;;;;;10.70;8.95;;;;;;;16.37;100.00;101183.72;4990814;28;20713;-76
2021/06/27 03:05:55;;;;;;;10.18;9.00;;;;;;;16.31;100.00;101176.66;4991673;28;20236;-75
2021/06/27 03:08:21;;;;;;;9.75;8.85;;;;;;;16.19;100.00;101181.81;4984934;28;20940;-75
2021/06/27 03:10:47;;;;;;;10.13;9.23;;;;;;;16.20;100.00;101166.97;4990025;28;20230;-76
2021/06/27 03:13:15;;;;;;;10.27;9.38;;;;;;;16.20;100.00;101177.94;4972515;28;20221;-75
2021/06/27 03:15:40;;;;;;;10.70;9.55;;;;;;;16.25;100.00;101177.06;4972090;28;20226;-75
2021/06/27 03:18:06;;;;;;;11.38;10.27;;;;;;;16.31;100.00;101181.34;4959060;28;20189;-77
2021/06/27 03:20:34;;;;;;;11.55;10.35;;;;;;;16.23;100.00;101179.28;4990680;28;20225;-76
2021/06/27 03:23:00;;;;;;;11.25;10.25;;;;;;;16.23;100.00;101173.81;4991903;28;20671;-76
2021/06/27 03:25:26;;;;;;;11.48;10.38;;;;;;;16.17;100.00;101173.03;5007812;28;20228;-75
2021/06/27 03:27:55;;;;;;;11.20;10.10;;;;;;;16.18;100.00;101171.13;4991871;28;20189;-74
2021/06/27 03:30:21;;;;;;;10.82;9.82;;;;;;;16.04;100.00;101172.13;5006694;28;20177;-75
2021/06/27 03:32:49;;;;;;;11.18;10.07;;;;;;;16.04;100.00;101175.66;4991899;28;20192;-75
2021/06/27 03:35:15;;;;;;;10.85;9.77;;;;;;;16.16;100.00;101175.25;4989160;28;20213;-77
2021/06/27 03:37:51;;;;;;;11.05;9.95;;;;;;;16.10;100.00;101166.28;4975751;28;20186;-77
2021/06/27 03:40:18;;;;;;;10.85;9.60;;;;;;;16.35;100.00;101166.72;4975585;28;20217;-76
2021/06/27 03:42:47;;;;;;;10.55;9.45;;;;;;;16.51;100.00;101167.34;4991707;28;20237;-76
2021/06/27 03:45:15;;;;;;;10.45;9.55;;;;;;;16.63;100.00;101172.06;4987731;28;20206;-75
2021/06/27 03:47:43;;;;;;;11.15;10.10;;;;;;;16.80;100.00;101174.25;4956007;28;20193;-76
2021/06/27 03:50:09;;;;;;;10.65;9.57;;;;;;;16.87;100.00;101182.88;4981489;28;20817;-75
2021/06/27 03:52:37;;;;;;;10.18;9.27;;;;;;;16.93;100.00;101177.84;5007827;28;20281;-78
2021/06/27 03:55:07;;;;;;;10.93;9.93;;;;;;;17.05;100.00;101180.09;5007969;28;20209;-79
2021/06/27 03:57:35;;;;;;;11.02;9.98;;;;;;;17.11;100.00;101179.72;4975119;28;20254;-76
2021/06/27 04:00:04;;;;;;;10.07;9.13;;;;;;;17.18;100.00;101182.09;4990464;28;20659;-75
2021/06/27 04:02:37;;;;;;;10.10;9.20;;;;;;;17.18;100.00;101176.59;4990643;28;20226;-76
2021/06/27 04:05:09;;;;;;;10.65;8.70;;;;;;;17.26;100.00;101175.91;4974866;28;20205;-76
2021/06/27 04:07:34;;;;;;;9.98;9.05;;;;;;;17.33;100.00;101171.66;4991470;28;20302;-76
2021/06/27 04:10:00;;;;;;;9.48;8.57;;;;;;;17.46;100.00;101182.63;5006447;28;20332;-75
2021/06/27 04:12:26;;;;;;;9.75;8.85;;;;;;;17.47;100.00;101184.28;4972946;28;20293;-76
2021/06/27 04:14:54;;;;;;;10.80;9.82;;;;;;;17.47;100.00;101180.69;4990533;28;20255;-74
2021/06/27 04:17:22;;;;;;;10.18;9.18;;;;;;;17.87;100.00;101178.75;4974822;28;20217;-76
2021/06/27 04:19:50;;;;;;;10.05;9.05;;;;;;;17.97;100.00;101177.75;4974822;28;20659;-76
2021/06/27 04:22:18;;;;;;;10.43;9.10;;;;;;;17.98;100.00;101182.09;4973968;28;20229;-76
2021/06/27 04:24:48;;;;;;;10.85;9.40;;;;;;;18.12;100.00;101181.81;4975008;28;20761;-75
2021/06/27 04:27:14;;;;;;;9.60;8.70;;;;;;;18.33;100.00;101182.16;5006448;28;20236;-76
2021/06/27 04:29:39;;;;;;;10.73;9.65;;;;;;;18.18;100.00;101175.06;4968752;28;20578;-75
2021/06/27 04:32:05;;;;;;;10.95;9.85;;;;;;;18.41;100.00;101168.50;4967061;28;20833;-75
2021/06/27 04:34:32;;;;;;;11.07;9.98;;;;;;;18.42;100.00;101169.28;4990677;28;20572;-76
2021/06/27 04:36:57;;;;;;;10.32;9.43;;;;;;;18.39;100.00;101172.69;4990078;28;20317;-75
2021/06/27 04:39:23;;;;;;;10.82;9.75;;;;;;;18.66;100.00;101160.44;4990400;28;20299;-76
2021/06/27 04:41:49;;;;;;;10.07;9.13;;;;;;;18.81;100.00;101161.97;4990715;28;20712;-76
2021/06/27 04:44:17;;;;;;;10.93;9.10;;;;;;;19.06;100.00;101160.22;4990376;28;20670;-75
2021/06/27 04:46:47;;;;;;;9.48;8.65;;;;;;;19.28;100.00;101160.19;4973682;28;20241;-76
2021/06/27 04:49:15;;;;;;;9.48;8.57;;;;;;;19.42;100.00;101158.16;4974925;28;20192;-76
2021/06/27 04:51:43;;;;;;;9.15;8.35;;;;;;;19.43;100.00;101152.31;4973355;28;20368;-75
2021/06/27 04:54:11;;;;;;;9.38;8.52;;;;;;;19.48;100.00;101156.88;5006692;28;20674;-76
2021/06/27 04:56:37;;;;;;;9.57;8.73;;;;;;;19.59;100.00;101155.44;4989523;28;20237;-77
2021/06/27 04:59:03;;;;;;;10.27;9.27;;;;;;;19.59;100.00;101158.22;4991711;28;20236;-79
2021/06/27 05:01:31;;;;;;;9.70;8.70;;;;;;;19.55;100.00;101154.47;5007102;28;20240;-79
2021/06/27 05:04:01;;;;;;;10.13;9.23;;;;;;;19.52;100.00;101152.34;4992554;28;20190;-79
2021/06/27 05:06:27;;;;;;;9.65;8.85;;;;;;;19.53;100.00;101149.28;4992233;28;20640;-78
2021/06/27 05:08:53;;;;;;;10.25;9.13;;;;;;;19.64;100.00;101150.59;4992078;28;20240;-79
2021/06/27 05:11:18;;;;;;;9.45;8.55;;;;;;;19.85;100.00;101152.50;4992632;28;20221;-78
2021/06/27 05:13:46;;;;;;;9.15;8.30;;;;;;;19.96;100.00;101153.78;5000038;28;20190;-78
2021/06/27 05:16:17;;;;;;;9.20;8.40;;;;;;;19.80;100.00;101155.38;5007402;28;20253;-78
2021/06/27 05:18:42;;;;;;;8.43;7.65;;;;;;;19.96;100.00;101156.56;4976931;28;20505;-78
2021/06/27 05:21:08;;;;;;;8.82;8.07;;;;;;;20.05;100.00;101151.88;4987517;28;20273;-78
2021/06/27 05:23:33;;;;;;;8.45;7.65;;;;;;;20.15;100.00;101146.84;4987680;28;20245;-78
2021/06/27 05:25:59;;;;;;;8.45;7.75;;;;;;;20.31;99.65;101149.94;4994602;28;20236;-78
2021/06/27 05:28:25;;;;;;;8.77;7.97;;;;;;;20.37;99.51;101148.66;4991880;28;20181;-79
2021/06/27 05:30:51;;;;;;;9.50;8.57;;;;;;;20.37;100.00;101149.47;4990270;28;20233;-78
2021/06/27 05:33:19;;;;;;;9.88;8.90;;;;;;;20.37;99.88;101145.91;4973468;28;20186;-77
2021/06/27 05:35:44;;;;;;;9.38;8.57;;;;;;;20.39;99.34;101149.16;4974134;28;20217;-78
2021/06/27 05:38:12;;;;;;;9.05;8.25;;;;;;;20.40;100.00;101148.00;5007537;28;20567;-79
2021/06/27 05:40:40;;;;;;;9.30;8.40;;;;;;;20.58;100.00;101139.38;4991006;28;20263;-78
2021/06/27 05:43:05;;;;;;;9.38;8.52;;;;;;;20.61;97.84;101139.56;4984500;28;20196;-79
2021/06/27 05:45:37;;;;;;;9.82;8.93;;;;;;;20.78;97.42;101145.06;4973987;28;20570;-78
2021/06/27 05:48:04;;;;;;;10.27;9.35;;;;;;;20.87;95.14;101148.63;4992261;28;20239;-78
2021/06/27 05:50:32;;;;;;;10.05;9.15;;;;;;;21.03;93.94;101135.94;4977853;28;20228;-78
2021/06/27 05:52:57;;;;;;;9.52;8.63;;;;;;;21.03;93.45;101141.47;4996098;28;20181;-78
2021/06/27 05:55:23;;;;;;;8.13;7.32;;;;;;;21.26;91.74;101141.72;4981277;28;20309;-78
2021/06/27 05:57:49;;;;;;;9.30;8.30;;;;;;;21.53;91.21;101152.34;4991428;28;20272;-78
2021/06/27 06:00:19;;;;;;;9.45;7.85;;;;;;;21.66;87.55;101145.78;4990078;28;20198;-78
2021/06/27 06:02:49;;;;;;;8.63;7.82;;;;;;;22.04;85.13;101145.38;4988816;28;20213;-79
2021/06/27 06:05:15;;;;;;;8.23;7.53;;;;;;;22.11;81.30;101147.63;4972248;28;20278;-78
2021/06/27 06:07:43;;;;;;;8.05;7.25;;;;;;;21.87;82.10;101146.66;4974072;28;20197;-79
2021/06/27 06:10:11;;;;;;;7.70;6.90;;;;;;;22.11;79.95;101148.44;4974585;28;20191;-81
2021/06/27 06:12:37;;;;;;;7.93;7.25;;;;;;;21.57;83.72;101147.78;5006094;28;20197;-78
2021/06/27 06:15:03;;;;;;;7.30;6.70;;;;;;;21.90;83.61;101140.44;5007066;28;20233;-79
2021/06/27 06:17:32;;;;;;;7.57;6.88;;;;;;;21.76;82.71;101139.88;4991094;28;20221;-79
2021/06/27 06:20:00;;;;;;;7.90;7.18;;;;;;;21.86;83.12;101131.19;4990299;28;20722;-78
2021/06/27 06:22:28;;;;;;;7.63;6.95;;;;;;;21.97;83.99;101129.66;4983249;28;20222;-78
2021/06/27 06:24:54;;;;;;;7.18;6.57;;;;;;;21.88;84.86;101123.38;4991744;28;20217;-78
2021/06/27 06:27:19;;;;;;;6.95;6.35;;;;;;;22.03;84.51;101121.66;5005062;28;20222;-78
2021/06/27 06:29:47;;;;;;;6.78;6.15;;;;;;;22.43;83.63;101120.03;4990452;28;20190;-79
2021/06/27 06:32:15;;;;;;;6.93;6.40;;;;;;;22.59;81.52;101119.06;4986112;28;20218;-78
2021/06/27 06:34:41;;;;;;;6.35;5.82;;;;;;;22.93;81.25;101116.81;4958196;28;20193;-78
2021/06/27 06:37:07;;;;;;;6.93;6.40;;;;;;;23.18;79.76;101124.00;4982158;28;20703;-79
2021/06/27 06:39:33;;;;;;;6.20;5.70;;;;;;;23.46;79.01;101130.50;4961790;28;20196;-77
2021/06/27 06:42:00;;;;;;;5.88;5.38;;;;;;;23.66;77.95;101120.16;4972409;28;20218;-79
2021/06/27 06:44:26;;;;;;;5.53;5.10;;;;;;;23.52;73.30;101123.59;4989572;28;20220;-77
2021/06/27 06:46:52;;;;;;;5.10;4.70;;;;;;;23.78;72.75;101133.22;5009296;28;20214;-77
2021/06/27 06:49:20;;;;;;;5.00;4.60;;;;;;;23.51;71.36;101128.31;4993893;28;20189;-78
2021/06/27 06:51:49;;;;;;;5.38;4.88;;;;;;;23.56;71.93;101131.69;4992182;28;20225;-77
2021/06/27 06:54:14;;;;;;;4.65;4.25;;;;;;;23.78;68.86;101122.13;4984898;28;20248;-78
2021/06/27 06:56:42;;;;;;;4.90;4.40;;;;;;;24.03;68.23;101130.09;5008978;28;20229;-77
2021/06/27 06:59:08;;;;;;;5.13;4.63;;;;;;;24.05;68.44;101127.75;4992679;28;20182;-77
2021/06/27 07:01:33;;;;;;;5.18;4.40;;;;;;;24.41;68.17;101115.44;4989549;28;20644;-77
2021/06/27 07:04:04;;;;;;;5.32;4.90;;;;;;;24.64;68.18;101122.03;4990332;28;20307;-77
2021/06/27 07:06:35;;;;;;;5.03;4.53;;;;;;;24.95;68.05;101122.16;5006071;28;20230;-76
2021/06/27 07:09:03;;;;;;;5.00;4.60;;;;;;;24.68;64.10;101122.94;4987762;28;20208;-78
2021/06/27 07:11:28;;;;;;;4.70;4.30;;;;;;;24.75;63.72;101125.94;4956550;28;20611;-76
2021/06/27 07:13:54;;;;;;;4.72;4.30;;;;;;;24.65;65.69;101126.47;4981971;28;20188;-77
2021/06/27 07:16:19;;;;;;;4.55;4.15;;;;;;;24.95;63.62;101119.38;4988602;28;20230;-76
2021/06/27 07:18:45;;;;;;;4.57;4.18;;;;;;;25.11;62.47;101121.03;4986322;28;20200;-76
2021/06/27 07:21:10;;;;;;;3.85;3.50;;;;;;;25.17;58.76;101122.38;4971083;28;20710;-75
2021/06/27 07:23:36;;;;;;;4.20;3.78;;;;;;;25.40;59.33;101126.97;4956153;28;20202;-76
2021/06/27 07:26:02;;;;;;;4.82;3.47;;;;;;;24.93;60.31;101116.16;4973056;28;20241;-75
2021/06/27 07:28:33;;;;;;;4.10;3.80;;;;;;;24.66;59.86;101121.69;4966164;28;20285;-74
2021/06/27 07:31:01;;;;;;;3.67;3.38;;;;;;;24.93;60.54;101110.59;4971380;28;20627;-76
2021/06/27 07:33:26;;;;;;;3.85;3.55;;;;;;;25.22;58.53;101111.78;4972433;28;20191;-76
2021/06/27 07:35:54;;;;;;;4.00;3.70;;;;;;;24.80;59.67;101106.22;4978831;28;20221;-76
2021/06/27 07:38:22;;;;;;;4.18;3.72;;;;;;;25.08;59.82;101099.47;4981787;28;20224;-76
2021/06/27 07:40:48;;;;;;;3.80;3.50;;;;;;;25.28;59.95;101096.44;4990157;28;20225;-76
2021/06/27 07:43:16;;;;;;;4.00;3.70;;;;;;;25.36;57.01;101094.66;4991419;28;20292;-77
2021/06/27 07:45:46;;;;;;;3.63;3.17;;;;;;;25.21;58.81;101098.22;4988089;28;20760;-77
2021/06/27 07:48:11;;;;;;;3.70;3.40;;;;;;;24.70;58.77;101098.38;4997433;28;20193;-77
2021/06/27 07:50:37;;;;;;;3.17;2.90;;;;;;;24.33;60.55;101103.66;4975771;28;20255;-76
2021/06/27 07:53:03;;;;;;;3.05;2.85;;;;;;;24.53;59.73;101106.25;4979100;28;20567;-77
2021/06/27 07:55:30;;;;;;;3.50;3.20;;;;;;;25.00;60.02;101113.53;4957911;28;20221;-77
2021/06/27 07:57:58;;;;;;;3.13;2.88;;;;;;;24.70;58.36;101114.25;4992728;28;20277;-76
2021/06/27 08:00:24;;;;;;;2.65;2.47;;;;;;;24.99;58.94;101106.38;4998994;28;20309;-77
2021/06/27 08:02:49;;;;;;;3.72;2.70;;;;;;;25.13;55.47;101111.16;5004317;28;20222;-76
2021/06/27 08:05:17;;;;;;;3.00;2.80;;;;;;;25.48;54.22;101103.72;4993834;28;20217;-76
2021/06/27 08:07:43;;;;;;;3.15;2.95;;;;;;;25.13;55.49;101098.41;4981630;28;20217;-76
2021/06/27 08:10:09;;;;;;;3.00;2.80;;;;;;;24.82;55.58;101104.69;4994493;28;20198;-76
2021/06/27 08:12:38;;;;;;;2.70;2.50;;;;;;;24.95;55.63;101102.69;4989620;28;20194;-77
2021/06/27 08:15:05;;;;;;;3.55;3.13;;;;;;;25.06;56.42;101101.00;4992935;28;20206;-76
2021/06/27 08:17:33;;;;;;;3.20;3.00;;;;;;;24.70;56.86;101097.59;4990633;28;20214;-77
2021/06/27 08:19:59;;;;;;;3.17;2.78;;;;;;;25.17;56.40;101089.78;4975283;28;20212;-76
2021/06/27 08:22:24;;;;;;;2.95;2.75;;;;;;;25.11;56.41;101095.16;4990105;28;20874;-76
2021/06/27 08:24:52;;;;;;;2.75;2.55;;;;;;;25.30;54.33;101099.66;4975123;28;20205;-76
2021/06/27 08:27:18;;;;;;;3.00;2.67;;;;;;;25.39;53.01;101097.53;4959348;28;20222;-76
2021/06/27 08:29:45;;;;;;;2.70;2.50;;;;;;;25.48;53.75;101095.38;4970764;28;20548;-77
2021/06/27 08:32:11;;;;;;;2.63;2.42;;;;;;;25.68;50.76;101100.66;4990570;28;20225;-76
2021/06/27 08:34:39;;;;;;;2.83;2.60;;;;;;;25.88;50.64;101099.56;4991536;28;20258;-76
2021/06/27 08:37:04;;;;;;;2.65;2.45;;;;;;;25.85;49.81;101102.25;4990886;28;20229;-76
2021/06/27 08:39:33;;;;;;;3.13;2.80;;;;;;;26.30;48.81;101104.13;5001193;28;20189;-76
2021/06/27 08:41:58;;;;;;;3.08;2.88;;;;;;;26.51;48.19;101093.41;4990989;28;20232;-76
2021/06/27 08:44:26;;;;;;;2.60;2.40;;;;;;;26.53;48.71;101102.22;4995052;28;20198;-76
2021/06/27 08:46:55;;;;;;;2.92;2.63;;;;;;;26.53;49.05;101096.66;4955804;28;20295;-77
2021/06/27 08:49:22;;;;;;;3.13;2.80;;;;;;;26.64;47.54;101090.09;4971704;28;20836;-77
2021/06/27 08:51:53;;;;;;;2.95;2.75;;;;;;;26.72;48.32;101103.84;4954917;28;20314;-76
2021/06/27 08:54:20;;;;;;;2.88;2.67;;;;;;;26.54;48.99;101101.06;4964871;28;20277;-76
2021/06/27 08:56:51;;;;;;;3.20;3.00;;;;;;;25.81;50.85;101099.38;4990349;28;20230;-76
2021/06/27 08:59:19;;;;;;;3.53;3.20;;;;;;;25.66;50.01;101096.66;4991057;28;20196;-76
2021/06/27 09:01:44;;;;;;;3.78;3.47;;;;;;;26.36;49.48;101094.31;5005288;28;20229;-76
2021/06/27 09:04:13;;;;;;;3.47;3.13;;;;;;;26.53;49.58;101093.88;5000472;28;20202;-76
2021/06/27 09:06:40;;;;;;;3.78;3.47;;;;;;;26.31;50.17;101095.38;4950333;28;20324;-75
2021/06/27 09:09:12;;;;;;;5.50;4.38;;;;;;;26.49;48.87;101091.00;4990580;28;20189;-75
2021/06/27 09:11:39;;;;;;;4.80;4.40;;;;;;;26.64;47.62;101094.88;5004756;28;20213;-76
2021/06/27 09:14:08;;;;;;;4.82;4.28;;;;;;;26.31;48.29;101102.16;4988731;28;20265;-76
2021/06/27 09:16:36;;;;;;;4.35;4.00;;;;;;;26.32;48.89;101082.28;4974249;28;20744;-75
2021/06/27 09:19:06;;;;;;;4.28;3.88;;;;;;;26.71;48.82;101091.06;5006016;28;20206;-77
2021/06/27 09:21:32;;;;;;;4.57;3.75;;;;;;;27.09;48.84;101079.88;4989259;28;20233;-77
2021/06/27 09:24:00;;;;;;;4.00;3.70;;;;;;;26.91;49.16;101089.88;4958661;28;20192;-77
2021/06/27 09:26:33;;;;;;;3.47;3.28;;;;;;;27.38;47.89;101084.75;4991637;28;20233;-75
2021/06/27 09:29:05;;;;;;;3.42;3.13;;;;;;;27.60;48.31;101074.41;4991104;28;20185;-76
2021/06/27 09:31:34;;;;;;;3.67;3.38;;;;;;;27.86;47.09;101082.78;4990563;28;20259;-76
2021/06/27 09:34:01;;;;;;;3.50;3.20;;;;;;;27.72;46.06;101076.97;4991186;28;20181;-76
2021/06/27 09:36:32;;;;;;;3.53;3.15;;;;;;;27.91;45.17;101085.22;4959079;28;20260;-75
2021/06/27 09:39:06;;;;;;;5.10;3.17;;;;;;;28.33;46.48;101081.88;4991358;28;20257;-76
2021/06/27 09:41:36;;;;;;;3.63;3.33;;;;;;;27.99;44.85;101089.75;4967859;28;20217;-75
2021/06/27 09:44:08;;;;;;;3.20;3.00;;;;;;;28.42;44.44;101079.56;5002120;28;20189;-76
2021/06/27 09:46:39;;;;;;;3.92;3.53;;;;;;;28.91;43.37;101074.59;4970407;28;20270;-75
2021/06/27 09:49:11;;;;;;;3.67;3.38;;;;;;;28.59;41.95;101078.19;4986379;28;20916;-75
2021/06/27 09:51:41;;;;;;;3.33;3.05;;;;;;;28.64;41.71;101081.47;4989579;28;20276;-76
2021/06/27 09:54:17;;;;;;;3.50;3.20;;;;;;;29.28;40.56;101067.78;4973645;28;20184;-75
2021/06/27 09:56:47;;;;;;;3.33;3.03;;;;;;;29.36;42.03;101078.69;4987883;28;20320;-76
2021/06/27 09:59:15;;;;;;;3.50;3.20;;;;;;;29.17;41.69;101073.28;4957648;28;20197;-76
2021/06/27 10:01:41;;;;;;;3.60;3.30;;;;;;;28.95;41.20;101069.84;4975311;28;20297;-76
2021/06/27 10:04:13;;;;;;;2.95;2.75;;;;;;;28.98;41.59;101072.69;4994743;28;20754;-77
2021/06/27 10:06:48;;;;;;;3.60;3.30;;;;;;;29.39;40.66;101069.47;4978258;28;20229;-76
2021/06/27 10:09:16;;;;;;;3.28;2.97;;;;;;;29.15;39.48;101064.44;5009948;28;20189;-76
2021/06/27 10:11:54;;;;;;;3.05;2.75;;;;;;;28.91;39.33;101060.59;4965926;28;20232;-77
2021/06/27 10:14:22;;;;;;;3.22;2.70;;;;;;;29.48;39.00;101061.56;5007124;28;20197;-75
2021/06/27 10:16:47;;;;;;;3.15;2.85;;;;;;;29.74;38.96;101064.19;4992635;28;20584;-76
2021/06/27 10:19:13;;;;;;;2.88;2.65;;;;;;;28.53;38.89;101069.34;4993526;28;20205;-77
2021/06/27 10:21:40;;;;;;;3.33;3.13;;;;;;;27.88;42.00;101058.06;4976406;28;20229;-76
2021/06/27 10:24:06;;;;;;;3.28;3.00;;;;;;;27.44;42.38;101058.16;4977448;28;20232;-75
2021/06/27 10:26:34;;;;;;;3.58;3.28;;;;;;;27.70;42.97;101051.41;4993270;28;20268;-76
2021/06/27 10:29:00;;;;;;;2.90;2.70;;;;;;;28.36;42.10;101053.16;4976933;28;20178;-77
2021/06/27 10:31:27;;;;;;;3.38;3.08;;;;;;;28.68;41.38;101048.75;5006566;28;20213;-75
2021/06/27 10:33:58;;;;;;;2.92;2.70;;;;;;;29.25;42.60;101051.75;4960496;28;20200;-75
2021/06/27 10:36:31;;;;;;;4.60;2.80;;;;;;;29.42;40.69;101051.13;4976713;28;20249;-78
2021/06/27 10:38:56;;;;;;;3.00;2.80;;;;;;;29.24;39.34;101045.34;4976933;28;20865;-75
2021/06/27 10:42:01;;;;;;;3.42;2.67;;;;;;;29.69;40.14;101047.69;4961014;28;20233;-77
2021/06/27 10:44:39;;;;;;;3.25;3.03;;;;;;;30.18;38.38;101041.22;5005535;28;20205;-76
2021/06/27 10:47:11;;;;;;;3.20;2.95;;;;;;;28.59;40.97;101039.03;5004957;28;20277;-77
2021/06/27 10:49:50;;;;;;;3.10;2.90;;;;;;;29.05;42.10;101042.75;4988446;28;20192;-77
2021/06/27 10:52:16;;;;;;;3.47;3.17;;;;;;;29.14;40.41;101039.66;4956234;28;20246;-76
2021/06/27 10:54:43;;;;;;;3.10;2.90;;;;;;;28.83;41.79;101036.53;4972941;28;20190;-77
2021/06/27 10:57:12;;;;;;;3.13;2.92;;;;;;;28.34;42.83;101041.53;5002082;28;20226;-76
2021/06/27 10:59:38;;;;;;;3.28;3.00;;;;;;;27.78;43.99;101036.34;4991982;28;20761;-76
2021/06/27 11:02:14;;;;;;;3.08;2.83;;;;;;;28.09;42.36;101036.00;5001523;28;20221;-76
2021/06/27 11:04:43;;;;;;;3.00;2.80;;;;;;;28.03;42.36;101032.75;5008974;28;20659;-74
2021/06/27 11:07:17;;;;;;;4.50;3.08;;;;;;;27.81;43.09;101035.59;4994607;28;20692;-75
2021/06/27 11:09:47;;;;;;;3.00;2.80;;;;;;;28.12;42.25;101030.47;4941803;28;20200;-76
2021/06/27 11:12:13;;;;;;;3.05;2.85;;;;;;;28.21;41.06;101035.78;4956060;28;20222;-76
2021/06/27 11:14:39;;;;;;;2.75;2.40;;;;;;;29.00;40.62;101016.31;5007950;28;20273;-76
2021/06/27 11:17:10;;;;;;;5.72;3.00;;;;;;;29.06;39.63;101027.59;5007769;28;20279;-76
2021/06/27 11:19:45;;;;;;;3.30;3.00;;;;;;;28.22;40.43;101034.59;4992404;28;20745;-77
2021/06/27 11:22:21;;;;;;;3.10;2.78;;;;;;;28.77;39.53;101024.06;4991103;28;20232;-77
2021/06/27 11:24:50;;;;;;;2.90;2.70;;;;;;;28.85;40.29;101022.97;5007216;28;20185;-76